Sutherland Springs, Texas
Current Conditions -  °F | °C
As of 8:43 PM on Friday 21 Nov 2014 (Local Time) from KRND Reporting Station
Overcast Overcast  
Wind Chill: 20°   Ceiling: 1400
Heat Index: 20°   Visibility: 10mi
Dew Point: 18°   Wind: 9mph
Humidity: 88%   Direction: 140°SE
Pressure: 30.06"   Gusts: NA
Location:  29.27°N, 98.06°W
Report Text: KRND 220243Z AUTO 14008KT 10SM OVC014 20/18 A3006 RMK AO2
Loading
Personal Weather Stations






























Interactive Weather Map New forecast layout! Learn more

10-Day Weather Forecast

Advertisements
Track Severe Weather on mobile